Time;durP1;ratioP1;P1;durP2;ratioP2;P2;SDS_P1;SDS_P2;PMS_P1;PMS_P2;Temp;Humidity;BMP_temperature;BMP_pressure;BME280_temperature;BME280_humidity;BME280_pressure;Samples;Min_cycle;Max_cycle;Signal;HPM_P1;HPM_P2
2021/12/20 00:01:25;;;;;;;287.00;122.38;;;0.60;99.90;;;;;;5039354;28;20025;-78
2021/12/20 00:03:51;;;;;;;289.50;126.88;;;0.60;99.90;;;;;;5039932;28;20558;-77
2021/12/20 00:06:16;;;;;;;302.98;131.95;;;0.60;99.90;;;;;;5040011;28;20036;-78
2021/12/20 00:08:42;;;;;;;300.27;130.88;;;0.70;99.90;;;;;;5039287;28;20094;-78
2021/12/20 00:11:08;;;;;;;280.35;126.03;;;0.70;99.90;;;;;;5040542;28;20364;-76
2021/12/20 00:13:34;;;;;;;289.15;127.78;;;0.70;99.90;;;;;;5042299;28;20013;-80
2021/12/20 00:16:00;;;;;;;291.15;127.30;;;0.80;99.90;;;;;;5044745;28;20029;-78
2021/12/20 00:18:25;;;;;;;256.40;112.30;;;0.80;99.90;;;;;;5045294;28;20043;-79
2021/12/20 00:20:51;;;;;;;251.77;109.85;;;0.80;99.90;;;;;;5046833;28;20337;-78
2021/12/20 00:23:17;;;;;;;222.98;95.47;;;0.70;99.90;;;;;;5040117;28;20025;-78
2021/12/20 00:25:48;;;;;;;227.38;100.93;;;0.70;99.90;;;;;;5039244;28;20040;-77
2021/12/20 00:28:17;;;;;;;214.60;92.88;;;0.70;99.90;;;;;;5039508;28;20285;-79
2021/12/20 00:30:43;;;;;;;241.45;99.78;;;0.70;99.90;;;;;;5039120;28;20116;-78
2021/12/20 00:33:09;;;;;;;257.58;107.13;;;0.70;99.90;;;;;;5038569;28;20105;-77
2021/12/20 00:35:35;;;;;;;245.75;103.15;;;0.70;99.90;;;;;;5038729;28;20227;-79
2021/12/20 00:40:45;;;;;;;213.00;93.38;;;0.70;99.90;;;;;;5039287;28;20502;-78
2021/12/20 00:43:10;;;;;;;209.35;90.45;;;0.70;99.90;;;;;;5040223;28;20013;-79
2021/12/20 00:45:38;;;;;;;207.40;87.82;;;0.70;99.90;;;;;;5042877;28;20479;-79
2021/12/20 00:48:04;;;;;;;184.13;81.32;;;0.80;99.90;;;;;;5042622;28;20118;-76
2021/12/20 00:50:34;;;;;;;181.45;77.75;;;0.80;99.90;;;;;;5043082;28;20024;-79
2021/12/20 00:53:00;;;;;;;173.93;79.65;;;0.80;99.90;;;;;;5043418;28;20124;-79
2021/12/20 00:55:27;;;;;;;191.27;80.75;;;0.80;99.90;;;;;;5042314;28;20685;-79
2021/12/20 00:57:55;;;;;;;185.30;79.43;;;0.80;99.90;;;;;;5046888;28;20155;-78
2021/12/20 01:00:24;;;;;;;183.90;79.20;;;0.80;99.90;;;;;;5049675;28;20018;-78
2021/12/20 01:02:52;;;;;;;178.55;77.47;;;0.80;99.90;;;;;;5050327;28;20365;-78
2021/12/20 01:05:19;;;;;;;183.35;79.43;;;1.80;99.90;;;;;;5049846;28;20048;-79
2021/12/20 01:07:45;;;;;;;175.82;76.07;;;0.80;99.90;;;;;;5050953;28;20020;-79
2021/12/20 01:10:11;;;;;;;179.43;77.65;;;0.80;99.90;;;;;;5046740;28;20021;-78
2021/12/20 01:12:45;;;;;;;174.52;73.90;;;0.80;99.90;;;;;;5043256;28;20483;-78
2021/12/20 01:15:15;;;;;;;162.93;70.47;;;0.70;99.90;;;;;;5042178;28;20029;-80
2021/12/20 01:17:41;;;;;;;153.38;66.60;;;0.70;99.90;;;;;;5040855;28;20559;-78
2021/12/20 01:20:08;;;;;;;147.95;65.15;;;0.70;99.90;;;;;;5040784;28;20053;-77
2021/12/20 01:22:36;;;;;;;154.55;65.50;;;0.70;99.90;;;;;;5040253;28;20329;-78
2021/12/20 01:25:05;;;;;;;138.63;61.65;;;0.70;99.90;;;;;;5039849;28;20466;-78
2021/12/20 01:27:30;;;;;;;143.43;63.70;;;0.80;99.90;;;;;;5040447;28;20014;-78
2021/12/20 01:29:58;;;;;;;151.45;64.97;;;0.80;99.90;;;;;;5042322;28;20381;-79
2021/12/20 01:32:24;;;;;;;140.40;62.33;;;0.80;99.90;;;;;;5042640;28;20017;-78
2021/12/20 01:34:50;;;;;;;162.05;65.30;;;0.80;99.90;;;;;;5042015;28;20051;-77
2021/12/20 01:37:15;;;;;;;167.02;69.57;;;0.80;99.90;;;;;;5039864;28;20064;-78
2021/12/20 01:39:42;;;;;;;173.05;73.97;;;0.70;99.90;;;;;;5041218;28;20507;-77
2021/12/20 01:42:08;;;;;;;169.27;69.55;;;0.70;99.90;;;;;;5041850;28;20025;-78
2021/12/20 01:44:36;;;;;;;177.98;78.10;;;0.80;99.90;;;;;;5041758;28;20090;-77
2021/12/20 01:47:04;;;;;;;174.60;75.43;;;0.70;99.90;;;;;;5041558;28;20100;-78
2021/12/20 01:49:38;;;;;;;234.23;95.53;;;0.70;99.90;;;;;;5041161;28;20025;-78
2021/12/20 01:52:22;;;;;;;225.80;92.65;;;0.70;99.90;;;;;;5040210;28;20582;-80
2021/12/20 01:54:48;;;;;;;210.63;89.45;;;2.60;99.90;;;;;;5040330;28;20048;-77
2021/12/20 01:57:14;;;;;;;212.77;85.97;;;0.80;99.90;;;;;;5041071;28;20367;-77
2021/12/20 01:59:40;;;;;;;201.43;83.45;;;0.90;99.90;;;;;;5040803;28;20039;-78
2021/12/20 02:02:08;;;;;;;211.50;86.07;;;0.90;99.90;;;;;;5040740;28;20171;-78
2021/12/20 02:04:45;;;;;;;212.63;91.78;;;0.90;99.90;;;;;;5041316;28;20017;-79
2021/12/20 02:07:32;;;;;;;193.00;82.95;;;0.90;99.90;;;;;;5041497;28;20029;-78
2021/12/20 02:10:00;;;;;;;195.40;81.57;;;0.90;99.90;;;;;;5041196;28;20482;-78
2021/12/20 02:12:26;;;;;;;177.65;75.22;;;0.90;99.90;;;;;;5041630;28;20021;-79
2021/12/20 02:14:52;;;;;;;166.65;69.70;;;1.00;99.90;;;;;;5041665;28;20029;-79
2021/12/20 02:17:18;;;;;;;160.95;67.60;;;1.00;99.90;;;;;;5041487;28;20082;-79
2021/12/20 02:19:43;;;;;;;147.25;64.88;;;1.00;99.90;;;;;;5041828;28;20226;-78
2021/12/20 02:22:11;;;;;;;152.52;62.58;;;1.00;99.90;;;;;;5041312;28;20055;-78
2021/12/20 02:24:37;;;;;;;137.40;60.33;;;2.80;99.90;;;;;;5041000;28;20020;-78
2021/12/20 02:27:03;;;;;;;145.57;60.15;;;1.00;99.90;;;;;;5041804;28;20029;-78
2021/12/20 02:37:56;;;;;;;149.30;63.70;;;1.10;99.90;;;;;;4979124;28;20480;-78
2021/12/20 02:40:22;;;;;;;149.82;63.80;;;1.20;99.90;;;;;;4978338;28;20105;-79
2021/12/20 02:42:50;;;;;;;152.18;65.07;;;1.10;99.90;;;;;;4977971;28;20201;-78
2021/12/20 02:45:17;;;;;;;146.98;67.28;;;1.20;99.90;;;;;;4977870;28;20321;-77
2021/12/20 02:47:45;;;;;;;143.75;62.03;;;1.20;99.90;;;;;;4978006;28;20018;-78
2021/12/20 02:50:12;;;;;;;139.68;61.10;;;1.20;99.90;;;;;;4977253;28;20037;-78
2021/12/20 02:52:39;;;;;;;138.85;60.35;;;1.10;99.90;;;;;;4977890;28;20285;-81
2021/12/20 02:55:06;;;;;;;141.98;60.47;;;1.10;99.90;;;;;;4977594;28;20057;-78
2021/12/20 02:57:36;;;;;;;142.07;60.22;;;1.10;99.90;;;;;;4977771;28;20034;-79
2021/12/20 03:00:07;;;;;;;125.20;55.35;;;1.10;99.90;;;;;;4977960;28;20030;-78
2021/12/20 03:02:33;;;;;;;128.52;57.55;;;1.20;99.90;;;;;;4978151;28;20034;-79
2021/12/20 03:04:59;;;;;;;127.00;56.80;;;1.20;99.90;;;;;;4977862;28;20537;-78
2021/12/20 03:07:27;;;;;;;142.13;58.35;;;1.10;99.90;;;;;;4961439;28;20030;-78
2021/12/20 03:09:56;;;;;;;140.50;61.35;;;1.10;99.90;;;;;;5034115;28;20036;-79
2021/12/20 03:12:25;;;;;;;131.48;57.08;;;1.00;99.90;;;;;;5040468;28;20423;-78
2021/12/20 03:14:55;;;;;;;117.43;54.60;;;1.00;99.90;;;;;;5038636;28;20472;-78
2021/12/20 03:17:24;;;;;;;129.35;55.47;;;1.00;99.90;;;;;;5040767;28;20107;-78
2021/12/20 03:19:50;;;;;;;123.80;53.15;;;1.10;99.90;;;;;;5040255;28;20495;-78
2021/12/20 03:22:17;;;;;;;126.47;54.40;;;1.10;99.90;;;;;;5039734;28;20033;-78
2021/12/20 03:24:42;;;;;;;125.65;54.60;;;1.10;99.90;;;;;;5038456;28;20357;-79
2021/12/20 03:27:08;;;;;;;136.20;55.00;;;1.10;99.90;;;;;;5040667;28;20083;-78
2021/12/20 03:29:34;;;;;;;121.00;54.47;;;1.20;99.90;;;;;;5041428;28;20025;-79
2021/12/20 03:32:00;;;;;;;129.93;54.88;;;1.20;99.90;;;;;;5041781;28;20066;-78
2021/12/20 03:34:25;;;;;;;122.63;54.65;;;1.20;99.90;;;;;;5045875;28;20025;-78
2021/12/20 03:36:54;;;;;;;121.32;51.28;;;1.30;99.90;;;;;;5045527;28;20032;-79
2021/12/20 03:39:20;;;;;;;112.88;50.88;;;1.30;99.90;;;;;;5045507;28;20624;-78
2021/12/20 03:41:46;;;;;;;119.93;53.08;;;1.20;99.90;;;;;;5042430;28;20029;-79
2021/12/20 03:44:12;;;;;;;125.80;54.47;;;1.20;99.90;;;;;;5039802;28;20028;-78
2021/12/20 03:46:38;;;;;;;112.50;51.30;;;1.30;99.90;;;;;;5039712;28;20047;-78
2021/12/20 03:49:05;;;;;;;104.82;49.90;;;1.30;99.90;;;;;;5039626;28;20021;-77
2021/12/20 03:51:31;;;;;;;111.30;52.05;;;1.30;99.90;;;;;;5039145;28;20024;-78
2021/12/20 03:53:57;;;;;;;115.47;50.28;;;1.30;99.90;;;;;;5038704;28;20045;-79
2021/12/20 03:56:23;;;;;;;112.00;51.75;;;1.20;99.90;;;;;;5038593;28;20250;-77
2021/12/20 03:58:48;;;;;;;113.65;51.03;;;1.20;99.90;;;;;;5038857;28;20332;-78
2021/12/20 04:01:14;;;;;;;107.70;50.15;;;1.30;99.90;;;;;;5036897;28;20036;-78
2021/12/20 04:03:44;;;;;;;112.82;53.50;;;1.30;99.90;;;;;;5039015;28;20116;-79
2021/12/20 04:06:14;;;;;;;108.55;50.95;;;1.30;99.90;;;;;;5039428;28;20107;-78
2021/12/20 04:08:41;;;;;;;114.15;52.83;;;1.40;99.90;;;;;;5038786;28;20036;-78
2021/12/20 04:11:07;;;;;;;124.57;54.80;;;1.40;99.90;;;;;;5039117;28;20021;-78
2021/12/20 04:13:33;;;;;;;114.82;52.30;;;1.40;99.90;;;;;;5039230;28;20150;-77
2021/12/20 04:15:59;;;;;;;119.38;52.22;;;1.50;99.90;;;;;;5037825;28;20037;-78
2021/12/20 04:18:26;;;;;;;117.18;53.28;;;1.50;99.90;;;;;;5039216;28;20100;-79
2021/12/20 04:20:52;;;;;;;120.53;54.00;;;1.50;99.90;;;;;;5042811;28;20094;-80
2021/12/20 04:23:18;;;;;;;116.70;52.78;;;1.50;99.90;;;;;;5043836;28;20021;-78
2021/12/20 04:25:44;;;;;;;109.82;51.70;;;1.50;99.90;;;;;;5044176;28;20044;-78
2021/12/20 04:28:10;;;;;;;112.38;51.92;;;1.50;99.90;;;;;;5044508;28;20025;-79
2021/12/20 04:30:36;;;;;;;117.85;51.85;;;1.50;99.90;;;;;;5041808;28;20025;-78
2021/12/20 04:33:03;;;;;;;111.80;50.95;;;-0.30;99.30;;;;;;5038977;28;20083;-78
2021/12/20 04:35:28;;;;;;;127.68;57.25;;;1.50;99.90;;;;;;5040123;28;20041;-77
2021/12/20 04:38:00;;;;;;;120.97;53.92;;;1.40;99.90;;;;;;5038343;28;20025;-78
2021/12/20 04:40:27;;;;;;;109.78;52.50;;;-0.40;99.70;;;;;;5037090;28;20368;-79
2021/12/20 04:42:58;;;;;;;117.05;50.40;;;1.50;99.90;;;;;;5038412;28;20036;-78
2021/12/20 04:45:25;;;;;;;118.88;51.35;;;1.50;99.60;;;;;;5037136;28;20243;-78
2021/12/20 04:47:51;;;;;;;119.22;52.22;;;1.40;99.60;;;;;;5038582;28;20566;-78
2021/12/20 04:50:17;;;;;;;118.38;53.90;;;1.50;99.90;;;;;;5038556;28;20298;-80
2021/12/20 04:52:43;;;;;;;122.60;53.70;;;1.40;99.70;;;;;;5036650;28;20053;-80
2021/12/20 04:55:11;;;;;;;131.45;55.50;;;1.40;99.90;;;;;;5020698;28;20037;-79
2021/12/20 04:57:38;;;;;;;124.32;55.03;;;1.50;99.90;;;;;;5039100;28;20025;-79
2021/12/20 05:00:09;;;;;;;125.15;56.17;;;1.50;99.90;;;;;;5038677;28;20079;-76
2021/12/20 05:02:35;;;;;;;119.38;53.28;;;1.50;99.90;;;;;;5038367;28;20021;-78
2021/12/20 05:05:01;;;;;;;119.03;54.33;;;1.50;99.90;;;;;;5038521;28;20082;-78
2021/12/20 05:07:29;;;;;;;118.03;52.40;;;1.50;99.80;;;;;;5039119;28;20047;-78
2021/12/20 05:10:01;;;;;;;120.15;54.47;;;0.40;99.80;;;;;;5038992;28;20313;-77
2021/12/20 05:12:27;;;;;;;121.07;52.75;;;1.50;99.90;;;;;;5038469;28;20033;-76
2021/12/20 05:14:53;;;;;;;116.47;51.88;;;1.50;99.90;;;;;;5038129;28;20036;-78
2021/12/20 05:17:19;;;;;;;126.93;54.67;;;1.50;99.90;;;;;;5038228;28;20021;-77
2021/12/20 05:19:44;;;;;;;123.85;55.00;;;1.50;99.90;;;;;;5037070;28;20021;-77
2021/12/20 05:22:11;;;;;;;123.57;57.08;;;0.40;99.40;;;;;;5038353;28;20104;-76
2021/12/20 05:24:38;;;;;;;124.53;55.33;;;1.50;99.70;;;;;;5038106;28;20402;-78
2021/12/20 05:27:07;;;;;;;128.32;55.92;;;1.50;99.80;;;;;;5038573;28;20699;-80
2021/12/20 05:29:33;;;;;;;129.20;56.08;;;1.50;99.90;;;;;;5039253;28;20017;-78
2021/12/20 05:32:02;;;;;;;148.35;59.30;;;1.50;99.90;;;;;;5041707;28;20033;-78
2021/12/20 05:34:31;;;;;;;153.40;62.88;;;1.50;99.90;;;;;;5041510;28;20548;-78
2021/12/20 05:36:56;;;;;;;149.57;61.67;;;1.50;99.90;;;;;;5041485;28;20079;-78
2021/12/20 05:39:22;;;;;;;142.43;61.45;;;1.40;99.90;;;;;;5041438;28;20045;-77
2021/12/20 05:41:48;;;;;;;147.85;62.35;;;1.40;99.90;;;;;;5041813;28;20032;-78
2021/12/20 05:44:14;;;;;;;139.25;60.35;;;1.40;99.90;;;;;;5041735;28;20098;-78
2021/12/20 05:46:39;;;;;;;146.10;61.55;;;1.50;99.90;;;;;;5041932;28;20212;-78
2021/12/20 05:49:05;;;;;;;150.05;62.72;;;1.50;99.90;;;;;;5041609;28;20021;-78
2021/12/20 05:51:31;;;;;;;162.70;65.80;;;1.50;99.90;;;;;;5041161;28;20031;-78
2021/12/20 05:53:56;;;;;;;155.63;64.65;;;1.40;99.90;;;;;;5041253;28;20052;-76
2021/12/20 05:56:25;;;;;;;167.43;66.63;;;1.50;99.90;;;;;;5041624;28;20069;-79
2021/12/20 05:58:51;;;;;;;142.23;61.38;;;1.50;99.90;;;;;;5041807;28;20029;-77
2021/12/20 06:01:16;;;;;;;136.98;59.38;;;1.40;99.90;;;;;;5042962;28;20560;-78
2021/12/20 06:03:42;;;;;;;135.85;59.70;;;1.40;99.90;;;;;;5042332;28;20029;-77
2021/12/20 06:06:11;;;;;;;134.32;58.72;;;1.50;99.90;;;;;;5041736;28;20025;-78
2021/12/20 06:08:36;;;;;;;154.45;67.85;;;1.50;99.90;;;;;;5041202;28;20242;-77
2021/12/20 06:11:02;;;;;;;247.70;116.80;;;1.50;99.90;;;;;;5041388;28;20021;-77
2021/12/20 06:13:28;;;;;;;205.18;93.50;;;1.40;99.90;;;;;;5041505;28;20542;-78
2021/12/20 06:15:54;;;;;;;171.88;75.93;;;1.50;99.90;;;;;;5039381;28;20037;-76
2021/12/20 06:18:19;;;;;;;158.88;69.45;;;1.50;99.90;;;;;;5041252;28;20475;-78
2021/12/20 06:20:45;;;;;;;145.27;64.90;;;1.60;99.90;;;;;;5041314;28;20333;-76
2021/12/20 06:23:12;;;;;;;147.20;67.80;;;1.40;99.90;;;;;;5042558;28;20032;-78
2021/12/20 06:25:38;;;;;;;175.23;78.55;;;1.50;99.90;;;;;;5042502;28;20037;-79
2021/12/20 06:28:06;;;;;;;151.88;66.15;;;1.40;99.90;;;;;;5043335;28;20021;-78
2021/12/20 06:30:32;;;;;;;150.27;66.88;;;1.40;99.90;;;;;;5042410;28;20110;-78
2021/12/20 06:32:58;;;;;;;149.00;69.18;;;1.40;99.90;;;;;;5041827;28;20049;-78
2021/12/20 06:35:24;;;;;;;152.50;67.55;;;1.40;99.90;;;;;;5041601;28;20029;-78
2021/12/20 06:37:59;;;;;;;159.27;71.70;;;1.30;99.90;;;;;;5042846;28;20025;-79
2021/12/20 06:40:26;;;;;;;163.77;73.67;;;1.40;99.90;;;;;;5041720;28;20027;-80
2021/12/20 06:42:52;;;;;;;155.90;66.40;;;1.40;99.90;;;;;;5042950;28;20044;-79
2021/12/20 06:45:18;;;;;;;156.38;64.68;;;1.30;99.90;;;;;;5044522;28;20021;-81
2021/12/20 06:47:44;;;;;;;159.55;64.22;;;1.40;99.90;;;;;;5043336;28;20014;-79
2021/12/20 06:50:10;;;;;;;147.13;62.85;;;1.40;99.90;;;;;;5044085;28;20021;-80
2021/12/20 06:52:35;;;;;;;142.73;60.70;;;1.40;99.90;;;;;;5046995;28;20037;-79
2021/12/20 06:55:01;;;;;;;138.55;59.83;;;1.50;99.90;;;;;;5046549;28;20041;-80
2021/12/20 06:57:27;;;;;;;144.05;62.13;;;1.50;99.90;;;;;;5047636;28;20078;-80
2021/12/20 06:59:56;;;;;;;144.73;62.90;;;1.60;99.90;;;;;;5047247;28;20025;-78
2021/12/20 07:02:23;;;;;;;140.45;63.80;;;1.60;99.90;;;;;;5043197;28;20104;-80
2021/12/20 07:04:49;;;;;;;149.18;66.07;;;1.60;99.90;;;;;;5045013;28;20017;-80
2021/12/20 07:07:17;;;;;;;149.40;66.88;;;1.60;99.80;;;;;;5046435;28;20027;-80
2021/12/20 07:09:42;;;;;;;145.85;63.70;;;1.70;99.70;;;;;;5044916;28;20096;-79
2021/12/20 07:12:12;;;;;;;147.48;62.08;;;1.70;99.70;;;;;;5042731;28;20136;-79
2021/12/20 07:14:42;;;;;;;143.70;62.05;;;1.70;99.50;;;;;;5044412;28;20036;-79
2021/12/20 07:17:07;;;;;;;140.27;61.80;;;1.70;99.50;;;;;;5043465;28;20021;-80
2021/12/20 07:19:33;;;;;;;145.52;63.13;;;1.70;99.30;;;;;;5043495;28;20028;-80
2021/12/20 07:21:59;;;;;;;151.43;68.13;;;1.80;99.30;;;;;;5044316;28;20049;-80
2021/12/20 07:24:25;;;;;;;145.60;63.72;;;1.80;99.20;;;;;;5042838;28;20108;-81
2021/12/20 07:26:50;;;;;;;169.43;72.75;;;1.80;99.30;;;;;;5043196;28;20119;-80
2021/12/20 07:29:19;;;;;;;170.77;76.20;;;1.90;99.30;;;;;;5043955;28;20021;-79
2021/12/20 07:31:49;;;;;;;155.10;69.00;;;1.90;99.20;;;;;;5043489;28;20104;-80
2021/12/20 07:34:14;;;;;;;171.40;69.88;;;1.90;99.30;;;;;;5044006;28;20021;-81
2021/12/20 07:36:40;;;;;;;155.05;65.95;;;1.80;99.50;;;;;;5043258;28;20670;-80
2021/12/20 07:39:07;;;;;;;165.43;68.10;;;1.80;99.80;;;;;;5045793;28;20024;-79
2021/12/20 07:41:36;;;;;;;175.05;73.43;;;1.80;99.90;;;;;;5048988;28;20021;-82
2021/12/20 07:44:02;;;;;;;164.55;69.57;;;1.80;99.90;;;;;;5051860;28;20048;-79
2021/12/20 07:46:27;;;;;;;164.75;71.03;;;1.80;99.90;;;;;;5052423;28;20659;-80
2021/12/20 07:48:53;;;;;;;172.30;71.38;;;1.80;99.90;;;;;;5054391;28;20021;-80
2021/12/20 07:51:20;;;;;;;176.70;71.97;;;1.70;99.90;;;;;;5045966;28;20024;-80
2021/12/20 07:53:57;;;;;;;170.27;69.70;;;1.60;99.90;;;;;;5045316;28;20032;-78
2021/12/20 07:56:23;;;;;;;161.75;65.97;;;1.60;99.90;;;;;;5050338;28;20052;-79
2021/12/20 07:58:48;;;;;;;176.65;69.05;;;1.60;99.90;;;;;;5046670;28;20021;-79
2021/12/20 08:01:15;;;;;;;185.05;72.50;;;1.40;99.90;;;;;;5043037;28;20021;-79
2021/12/20 08:03:42;;;;;;;189.25;72.80;;;1.50;99.90;;;;;;5042477;28;20020;-78
2021/12/20 08:06:10;;;;;;;209.60;75.03;;;1.40;99.90;;;;;;5042532;28;20024;-79
2021/12/20 08:08:36;;;;;;;191.20;73.70;;;1.40;99.90;;;;;;5044369;28;20025;-79
2021/12/20 08:11:03;;;;;;;224.75;82.05;;;1.40;99.90;;;;;;5041068;28;20021;-79
2021/12/20 08:13:29;;;;;;;210.57;78.40;;;1.30;99.90;;;;;;5042089;28;20107;-80
2021/12/20 08:15:57;;;;;;;218.52;79.43;;;1.40;99.90;;;;;;5039048;28;20072;-81
2021/12/20 08:18:23;;;;;;;226.00;82.90;;;1.50;99.90;;;;;;5041531;28;20100;-79
2021/12/20 08:20:51;;;;;;;200.98;76.75;;;1.50;99.90;;;;;;5040355;28;20029;-80
2021/12/20 08:23:17;;;;;;;221.57;81.20;;;1.50;99.90;;;;;;5040940;28;20005;-80
2021/12/20 08:25:43;;;;;;;221.85;83.43;;;1.50;99.90;;;;;;5041651;28;20079;-79
2021/12/20 08:28:09;;;;;;;243.68;86.10;;;1.50;99.90;;;;;;5043149;28;20025;-80
2021/12/20 08:30:36;;;;;;;225.80;84.88;;;1.60;99.90;;;;;;5042729;28;20024;-80
2021/12/20 08:33:06;;;;;;;226.73;86.57;;;1.50;99.90;;;;;;5041294;28;20197;-79
2021/12/20 08:35:32;;;;;;;232.63;87.20;;;1.50;99.90;;;;;;5041884;28;20072;-81
2021/12/20 08:38:19;;;;;;;236.45;84.15;;;1.50;99.90;;;;;;5043269;28;20044;-80
2021/12/20 08:40:48;;;;;;;236.57;85.78;;;3.60;99.90;;;;;;5041993;28;20670;-80
2021/12/20 08:43:15;;;;;;;232.98;85.05;;;1.50;99.90;;;;;;5041525;28;20032;-78
2021/12/20 08:45:43;;;;;;;241.25;86.50;;;1.60;99.90;;;;;;5040958;28;20021;-79
2021/12/20 08:48:09;;;;;;;245.93;89.00;;;1.60;99.90;;;;;;5040098;28;20025;-78
2021/12/20 08:50:35;;;;;;;262.30;87.43;;;1.40;99.90;;;;;;5040315;28;20082;-81
2021/12/20 08:53:10;;;;;;;265.38;93.80;;;1.60;99.90;;;;;;5038985;28;20446;-79
2021/12/20 08:55:39;;;;;;;265.33;93.70;;;1.60;99.90;;;;;;5041249;28;20042;-80
2021/12/20 08:58:07;;;;;;;266.48;92.03;;;1.60;99.90;;;;;;5040472;28;20691;-80
2021/12/20 09:00:35;;;;;;;256.13;93.60;;;1.60;99.90;;;;;;5040801;28;20118;-79
2021/12/20 09:03:02;;;;;;;287.98;96.35;;;1.60;99.90;;;;;;5040503;28;20017;-79
2021/12/20 09:05:31;;;;;;;255.00;91.15;;;1.70;99.90;;;;;;5045932;28;20032;-80
2021/12/20 09:08:00;;;;;;;265.15;93.05;;;1.70;99.90;;;;;;5045392;28;20024;-79
2021/12/20 09:10:27;;;;;;;258.75;93.72;;;1.80;99.90;;;;;;5043009;28;20020;-79
2021/12/20 09:12:56;;;;;;;267.33;92.88;;;1.90;99.90;;;;;;5043446;28;20102;-79
2021/12/20 09:15:21;;;;;;;272.08;96.35;;;2.10;99.90;;;;;;5045979;28;20036;-79
2021/12/20 09:17:52;;;;;;;248.98;87.28;;;2.10;99.90;;;;;;5046419;28;20225;-79
2021/12/20 09:20:21;;;;;;;240.70;85.22;;;2.10;99.90;;;;;;5046900;28;20099;-80
2021/12/20 09:22:52;;;;;;;249.55;88.43;;;2.20;99.90;;;;;;5045710;28;20021;-80
2021/12/20 09:25:20;;;;;;;249.23;90.40;;;2.30;99.90;;;;;;5044547;28;20093;-78
2021/12/20 09:27:46;;;;;;;240.65;89.68;;;2.40;99.90;;;;;;5045278;28;20079;-79
2021/12/20 09:30:15;;;;;;;244.45;90.90;;;2.40;99.90;;;;;;5051234;28;20715;-79
2021/12/20 09:32:48;;;;;;;249.70;91.88;;;2.50;99.80;;;;;;5051628;28;20017;-79
2021/12/20 09:35:14;;;;;;;248.02;92.25;;;2.50;99.60;;;;;;5052920;28;20056;-79
2021/12/20 09:37:40;;;;;;;241.27;90.50;;;2.60;99.50;;;;;;5052655;28;20738;-78
2021/12/20 09:40:15;;;;;;;267.77;96.00;;;2.60;99.50;;;;;;5052300;28;20021;-79
2021/12/20 09:42:49;;;;;;;255.35;92.38;;;2.70;99.00;;;;;;5052243;28;20036;-80
2021/12/20 09:45:20;;;;;;;258.17;97.68;;;2.60;99.30;;;;;;5054391;28;20010;-79
2021/12/20 09:47:46;;;;;;;234.77;88.38;;;2.70;99.30;;;;;;5047345;28;20020;-80
2021/12/20 09:50:14;;;;;;;225.30;85.63;;;2.60;98.90;;;;;;5046259;28;20128;-81
2021/12/20 09:52:42;;;;;;;230.77;87.05;;;2.80;98.80;;;;;;5048658;28;20041;-81
2021/12/20 09:55:15;;;;;;;251.20;92.82;;;2.90;98.40;;;;;;5048175;28;20068;-80
2021/12/20 09:57:46;;;;;;;249.50;96.30;;;3.00;98.30;;;;;;5048212;28;20032;-82
2021/12/20 10:00:20;;;;;;;238.13;92.07;;;3.10;98.20;;;;;;5049183;28;20017;-79
2021/12/20 10:02:47;;;;;;;246.55;94.20;;;2.90;97.80;;;;;;5048413;28;20021;-80
2021/12/20 10:05:14;;;;;;;252.95;95.00;;;3.10;97.90;;;;;;5051225;28;20028;-79
2021/12/20 10:07:41;;;;;;;260.42;96.97;;;3.10;97.80;;;;;;5059126;28;20510;-80
2021/12/20 10:10:10;;;;;;;257.02;97.45;;;3.20;97.90;;;;;;5060785;28;20064;-80
2021/12/20 10:12:47;;;;;;;275.05;98.43;;;3.20;98.10;;;;;;5060472;28;20084;-80
2021/12/20 10:15:15;;;;;;;264.45;95.28;;;3.20;97.80;;;;;;5053883;28;20241;-82
2021/12/20 10:17:56;;;;;;;258.55;98.32;;;3.20;97.80;;;;;;5051259;28;20020;-82
2021/12/20 10:20:26;;;;;;;230.82;88.70;;;3.20;98.00;;;;;;5053316;28;20674;-81
2021/12/20 10:22:54;;;;;;;221.95;87.05;;;3.20;97.80;;;;;;5053573;28;20075;-80
2021/12/20 10:25:29;;;;;;;231.93;92.53;;;3.20;97.80;;;;;;5047563;28;20051;-82
2021/12/20 10:28:23;;;;;;;240.50;93.30;;;3.20;97.80;;;;;;5048696;28;20032;-81
2021/12/20 10:30:57;;;;;;;222.70;87.00;;;3.10;97.70;;;;;;5032526;28;20103;-80
2021/12/20 10:33:24;;;;;;;214.85;83.47;;;3.10;97.90;;;;;;5045569;28;20028;-79
2021/12/20 10:35:58;;;;;;;228.50;88.60;;;3.00;97.60;;;;;;5045872;28;20037;-79
2021/12/20 10:38:32;;;;;;;227.38;88.07;;;3.00;97.80;;;;;;5044640;28;20013;-81
2021/12/20 10:41:16;;;;;;;242.00;92.72;;;2.90;98.30;;;;;;5043993;28;20260;-79
2021/12/20 10:43:55;;;;;;;252.73;95.35;;;2.80;98.70;;;;;;5044933;28;20017;-79
2021/12/20 10:46:34;;;;;;;269.95;98.05;;;2.90;98.90;;;;;;5043914;28;20013;-79
2021/12/20 10:49:10;;;;;;;262.13;97.63;;;2.90;98.90;;;;;;5043322;28;20029;-80
2021/12/20 10:51:44;;;;;;;273.95;98.97;;;2.80;98.70;;;;;;5047406;28;20009;-80
2021/12/20 10:54:14;;;;;;;263.77;99.10;;;2.80;98.90;;;;;;5048383;28;20045;-79
2021/12/20 10:57:05;;;;;;;261.90;97.43;;;2.70;99.10;;;;;;5043182;28;20021;-80
2021/12/20 10:59:37;;;;;;;263.80;98.53;;;2.70;99.10;;;;;;5045878;28;20029;-80
2021/12/20 11:04:59;;;;;;;233.13;87.72;;;2.80;98.50;;;;;;5050555;28;20082;-80
2021/12/20 11:10:03;;;;;;;263.20;97.07;;;3.00;98.30;;;;;;5050160;28;20021;-80
2021/12/20 11:12:32;;;;;;;252.65;96.63;;;3.00;98.00;;;;;;5052452;28;20084;-80
2021/12/20 11:15:07;;;;;;;256.58;98.63;;;3.00;98.20;;;;;;5046205;28;20059;-82
2021/12/20 11:17:34;;;;;;;249.60;94.63;;;3.10;98.40;;;;;;5047894;28;20102;-81
2021/12/20 11:19:59;;;;;;;252.02;97.75;;;3.40;98.10;;;;;;5050364;28;20021;-80
2021/12/20 11:22:28;;;;;;;252.20;100.97;;;3.70;97.60;;;;;;5048920;28;20024;-81
2021/12/20 11:24:55;;;;;;;235.88;92.55;;;3.90;97.10;;;;;;5044197;28;20017;-80
2021/12/20 11:27:52;;;;;;;246.07;96.57;;;4.10;97.10;;;;;;5041601;28;20032;-80
2021/12/20 11:30:26;;;;;;;224.45;90.68;;;4.10;96.10;;;;;;5049072;28;20028;-78
2021/12/20 11:32:52;;;;;;;250.30;100.60;;;4.20;96.10;;;;;;5066577;28;20108;-80
2021/12/20 11:35:21;;;;;;;235.60;96.40;;;4.10;95.50;;;;;;5046716;28;20041;-81
2021/12/20 11:37:47;;;;;;;215.70;90.88;;;4.00;96.00;;;;;;5041957;28;20029;-80
2021/12/20 11:40:15;;;;;;;220.45;89.82;;;3.90;95.90;;;;;;5044133;28;20020;-80
2021/12/20 11:42:41;;;;;;;232.40;95.28;;;3.80;95.50;;;;;;5045296;28;20013;-80
2021/12/20 11:45:13;;;;;;;212.98;87.28;;;3.60;96.00;;;;;;5045375;28;20206;-80
2021/12/20 11:48:05;;;;;;;219.38;88.72;;;3.70;96.00;;;;;;5046058;28;20021;-80
2021/12/20 11:50:34;;;;;;;225.70;94.43;;;3.80;96.30;;;;;;5043020;28;20017;-79
2021/12/20 11:53:10;;;;;;;231.02;96.55;;;3.90;96.20;;;;;;5041268;28;20075;-80
2021/12/20 11:55:44;;;;;;;328.20;152.60;;;4.00;96.10;;;;;;5043704;28;20175;-79
2021/12/20 11:58:23;;;;;;;328.65;144.48;;;4.20;95.90;;;;;;5043041;28;20040;-80
2021/12/20 12:00:54;;;;;;;229.77;94.70;;;4.50;95.50;;;;;;5044661;28;20110;-79
2021/12/20 12:03:32;;;;;;;214.52;91.35;;;4.60;94.80;;;;;;5043301;28;20051;-80
2021/12/20 12:06:04;;;;;;;214.27;93.13;;;4.50;94.00;;;;;;5043336;28;20041;-79
2021/12/20 12:08:37;;;;;;;236.60;97.80;;;4.40;94.30;;;;;;5043219;28;20021;-80
2021/12/20 12:11:11;;;;;;;237.50;99.40;;;4.50;94.60;;;;;;5041049;28;20028;-80
2021/12/20 12:13:47;;;;;;;242.73;99.03;;;4.40;94.80;;;;;;5041754;28;20593;-80
2021/12/20 12:16:32;;;;;;;273.52;115.25;;;4.50;94.80;;;;;;5042719;28;20476;-80
2021/12/20 12:19:01;;;;;;;255.32;103.65;;;4.40;94.70;;;;;;5042727;28;20033;-80
2021/12/20 12:21:41;;;;;;;310.55;128.65;;;4.40;94.50;;;;;;5042746;28;20075;-79
2021/12/20 12:24:12;;;;;;;224.05;94.25;;;4.30;94.70;;;;;;5042205;28;20044;-80
2021/12/20 12:26:41;;;;;;;195.77;85.25;;;4.40;94.50;;;;;;5042408;28;20028;-80
2021/12/20 12:29:23;;;;;;;204.35;88.63;;;4.40;94.50;;;;;;5043464;28;20021;-79
2021/12/20 12:31:49;;;;;;;620.30;237.05;;;4.40;94.60;;;;;;5042252;28;20101;-80
2021/12/20 12:34:16;;;;;;;443.13;170.18;;;4.40;94.50;;;;;;5041370;28;20073;-81
2021/12/20 12:36:45;;;;;;;363.98;144.75;;;4.30;94.50;;;;;;5041982;28;20515;-79
2021/12/20 12:39:22;;;;;;;216.05;89.88;;;4.40;94.80;;;;;;5046851;28;20259;-79
2021/12/20 12:41:54;;;;;;;196.05;85.97;;;4.40;94.60;;;;;;5050012;28;20032;-80
2021/12/20 12:44:24;;;;;;;222.23;92.38;;;4.30;95.10;;;;;;5047874;28;20214;-79
2021/12/20 12:47:03;;;;;;;191.57;82.65;;;4.20;94.20;;;;;;5048969;28;20021;-80
2021/12/20 12:49:31;;;;;;;200.77;83.07;;;4.10;94.80;;;;;;5049155;28;20593;-79